Terminal Aerodrome Forecast
Issued by NWS Green Bay, WI

Home | Current Version | Previous Version | Graphics & Text | Print | Product List | Glossary On
Versions: 1 2 3 4 5 6 7 8 9 10 11 12 13 14
000
FTUS43 KGRB 030520
TAFGRB
TAF
KGRB 030520Z 0306/0406 15006KT P6SM SKC
     FM031100 24007KT P6SM FEW120 SCT200
     FM031600 25010G16KT P6SM SCT050 BKN120
     FM032000 24015G21KT P6SM VCSH BKN050
      TEMPO 0321/0324 3SM -TSRA BKN040CB
     FM040000 31007KT P6SM VCSH SCT040 BKN100=

USA.gov is the U.S. government's official web portal to all federal, state and local government web resources and services.